createdAt,value
2022-08-06T00:00:06.768Z,99024.41
2022-08-06T00:02:35.111Z,99029.69
2022-08-06T00:05:03.962Z,99028.88
2022-08-06T00:07:44.967Z,99027.22
2022-08-06T00:10:14.828Z,99029.03
2022-08-06T00:12:41.879Z,99031.00
2022-08-06T00:15:13.057Z,99037.09
2022-08-06T00:17:41.429Z,99044.38
2022-08-06T00:20:10.551Z,99055.75
2022-08-06T00:22:37.895Z,99056.56
2022-08-06T00:25:05.240Z,99052.28
2022-08-06T00:27:39.014Z,99054.13
2022-08-06T00:30:06.476Z,99056.91
2022-08-06T00:32:42.091Z,99059.53
2022-08-06T00:35:10.636Z,99069.28
2022-08-06T00:37:55.205Z,99060.69
2022-08-06T00:40:25.159Z,99062.50
2022-08-06T00:42:54.323Z,99061.66
2022-08-06T00:45:24.164Z,99055.56
2022-08-06T00:48:02.683Z,99052.28
2022-08-06T00:50:31.103Z,99061.03
2022-08-06T00:52:58.380Z,99052.28
2022-08-06T00:55:31.842Z,99060.34
2022-08-06T00:58:03.315Z,99075.34
2022-08-06T01:00:31.244Z,99079.00
2022-08-06T01:03:05.879Z,99069.44
2022-08-06T01:06:03.960Z,99073.03
2022-08-06T01:08:19.998Z,99063.47
2022-08-06T01:10:49.344Z,99070.56
2022-08-06T01:13:25.701Z,99070.72
2022-08-06T01:16:08.445Z,99065.59
2022-08-06T01:18:36.299Z,99070.88
2022-08-06T01:21:55.477Z,99070.22
2022-08-06T01:23:53.780Z,99065.91
2022-08-06T01:26:22.280Z,99073.84
2022-08-06T01:28:52.309Z,99073.19
2022-08-06T01:31:20.352Z,99075.00
2022-08-06T01:33:47.896Z,99084.88
2022-08-06T01:36:17.183Z,99081.41
2022-08-06T01:38:50.579Z,99093.78
2022-08-06T01:41:57.955Z,99089.50
2022-08-06T01:44:26.186Z,99094.09
2022-08-06T01:46:56.692Z,99087.16
2022-08-06T01:49:25.539Z,99093.41
2022-08-06T01:52:14.309Z,99090.78
2022-08-06T01:54:43.588Z,99089.94
2022-08-06T01:57:14.575Z,99092.75
2022-08-06T01:59:57.731Z,99093.75
2022-08-06T02:02:28.870Z,99093.91
2022-08-06T02:04:59.278Z,99093.06
2022-08-06T02:08:38.183Z,99101.97
2022-08-06T02:10:19.942Z,99092.41
2022-08-06T02:12:46.995Z,99097.69
2022-08-06T02:15:14.051Z,99100.47
2022-08-06T02:18:04.650Z,99097.00
2022-08-06T02:20:37.137Z,99100.66
2022-08-06T02:23:05.940Z,99099.97
2022-08-06T02:25:36.193Z,99102.59
2022-08-06T02:28:03.322Z,99100.94
2022-08-06T02:30:35.255Z,99104.41
2022-08-06T02:33:04.210Z,99110.69
2022-08-06T02:35:35.117Z,99109.84
2022-08-06T02:38:07.859Z,99117.78
2022-08-06T02:40:39.889Z,99120.56
2022-08-06T02:43:07.519Z,99123.34
2022-08-06T02:45:38.280Z,99129.59
2022-08-06T02:48:05.505Z,99113.91
2022-08-06T02:50:37.225Z,99121.81
2022-08-06T02:53:04.613Z,99134.19
2022-08-06T02:55:35.767Z,99123.63
2022-08-06T02:58:03.145Z,99134.34
2022-08-06T03:00:31.623Z,99135.31
2022-08-06T03:03:00.123Z,99131.97
2022-08-06T03:05:54.802Z,99128.50
2022-08-06T03:08:14.525Z,99128.50
2022-08-06T03:10:43.224Z,99130.47
2022-08-06T03:13:10.936Z,99136.56
2022-08-06T03:15:57.495Z,99136.72
2022-08-06T03:18:25.299Z,99134.91
2022-08-06T03:20:55.275Z,99143.66
2022-08-06T03:23:24.649Z,99137.56
2022-08-06T03:25:54.745Z,99142.00
2022-08-06T03:28:22.804Z,99143.81
2022-08-06T03:30:55.371Z,99147.41
2022-08-06T03:33:42.085Z,99143.13
2022-08-06T03:36:10.004Z,99149.41
2022-08-06T03:38:37.583Z,99150.34
2022-08-06T03:41:04.625Z,99163.53
2022-08-06T03:43:56.205Z,99161.06
2022-08-06T03:46:22.184Z,99161.91
2022-08-06T03:48:49.420Z,99162.88
2022-08-06T03:51:16.463Z,99170.78
2022-08-06T03:53:46.846Z,99170.94
2022-08-06T03:56:17.137Z,99177.06
2022-08-06T03:58:44.518Z,99178.00
2022-08-06T04:01:15.208Z,99171.91
2022-08-06T04:03:47.327Z,99177.19
2022-08-06T04:06:20.589Z,99177.34
2022-08-06T04:08:47.865Z,99181.00
2022-08-06T04:12:12.756Z,99184.44
2022-08-06T04:14:07.340Z,99187.22
2022-08-06T04:16:36.042Z,99189.03
2022-08-06T04:19:04.057Z,99195.13
2022-08-06T04:22:59.454Z,99196.13
2022-08-06T04:24:18.170Z,99201.38
2022-08-06T04:26:46.585Z,99210.28
2022-08-06T04:29:13.611Z,99211.25
2022-08-06T04:32:11.170Z,99214.88
2022-08-06T04:34:30.696Z,99219.31
2022-08-06T04:36:57.786Z,99220.31
2022-08-06T04:39:37.191Z,99232.66
2022-08-06T04:42:05.882Z,99237.94
2022-08-06T04:44:33.549Z,99237.25
2022-08-06T04:47:00.682Z,99252.25
2022-08-06T04:49:58.380Z,99254.88
2022-08-06T04:52:34.462Z,99252.41
2022-08-06T04:55:01.841Z,99248.09
2022-08-06T04:57:33.805Z,99252.53
2022-08-06T05:02:35.907Z,99258.78
2022-08-06T05:05:03.231Z,99255.34
2022-08-06T05:07:38.639Z,99257.16
2022-08-06T05:10:18.491Z,99263.38
2022-08-06T05:12:46.020Z,99263.38
2022-08-06T05:15:15.088Z,99265.19
2022-08-06T05:17:48.774Z,99275.72
2022-08-06T05:20:27.219Z,99275.88
2022-08-06T05:23:01.230Z,99279.34
2022-08-06T05:25:30.482Z,99280.47
2022-08-06T05:28:11.564Z,99286.56
2022-08-06T05:30:39.416Z,99293.66
2022-08-06T05:33:11.991Z,99290.19
2022-08-06T05:35:45.748Z,99288.53
2022-08-06T05:38:31.531Z,99286.03
2022-08-06T05:41:00.344Z,99292.16
2022-08-06T05:43:58.700Z,99290.47
2022-08-06T05:46:17.334Z,99289.66
2022-08-06T05:48:45.390Z,99292.28
2022-08-06T05:51:16.115Z,99291.63
2022-08-06T05:54:05.025Z,99293.41
2022-08-06T05:56:38.668Z,99301.31
2022-08-06T05:59:06.716Z,99303.13
2022-08-06T06:01:43.219Z,99307.56
2022-08-06T06:04:11.845Z,99308.56
2022-08-06T06:06:39.994Z,99307.72
2022-08-06T06:09:10.469Z,99313.81
2022-08-06T06:11:55.191Z,99307.88
2022-08-06T06:14:32.140Z,99314.00
2022-08-06T06:17:03.387Z,99309.84
2022-08-06T06:19:35.794Z,99317.75
2022-08-06T06:22:06.015Z,99317.75
2022-08-06T06:24:33.055Z,99315.94
2022-08-06T06:27:01.483Z,99317.75
2022-08-06T06:30:01.985Z,99329.25
2022-08-06T06:32:30.214Z,99318.72
2022-08-06T06:34:58.385Z,99318.72
2022-08-06T06:37:25.425Z,99325.78
2022-08-06T06:39:52.947Z,99329.25
2022-08-06T06:42:32.663Z,99333.69
2022-08-06T06:45:04.012Z,99339.09
2022-08-06T06:47:47.949Z,99337.31
2022-08-06T06:50:26.684Z,99339.94
2022-08-06T06:52:53.781Z,99341.59
2022-08-06T06:55:36.835Z,99346.84
2022-08-06T06:58:10.331Z,99340.63
2022-08-06T07:00:45.594Z,99350.19
2022-08-06T07:03:15.161Z,99345.75
2022-08-06T07:06:04.428Z,99343.94
2022-08-06T07:08:37.205Z,99359.63
2022-08-06T07:11:09.409Z,99350.88
2022-08-06T07:13:47.414Z,99353.53
2022-08-06T07:16:34.916Z,99350.72
2022-08-06T07:19:03.944Z,99355.00
2022-08-06T07:21:31.083Z,99351.38
2022-08-06T07:24:06.304Z,99358.34
2022-08-06T07:26:48.152Z,99351.25
2022-08-06T07:29:49.914Z,99357.19
2022-08-06T07:32:05.547Z,99358.88
2022-08-06T07:34:32.714Z,99361.50
2022-08-06T07:37:01.385Z,99358.06
2022-08-06T07:39:28.494Z,99359.69
2022-08-06T07:42:11.290Z,99356.25
2022-08-06T07:44:55.957Z,99363.16
2022-08-06T07:47:29.638Z,99361.34
2022-08-06T07:50:04.452Z,99370.91
2022-08-06T07:52:31.912Z,99357.72
2022-08-06T07:54:59.351Z,99351.50
2022-08-06T07:57:53.423Z,99367.16
2022-08-06T08:00:15.212Z,99361.88
2022-08-06T08:02:42.375Z,99370.63
2022-08-06T08:05:39.569Z,99362.72
2022-08-06T08:08:09.353Z,99360.06
2022-08-06T08:10:36.588Z,99368.81
2022-08-06T08:13:03.995Z,99363.53
2022-08-06T08:15:32.449Z,99369.50
2022-08-06T08:18:01.842Z,99368.53
2022-08-06T08:20:33.640Z,99376.44
2022-08-06T08:23:01.839Z,99380.72
2022-08-06T08:25:41.015Z,99373.66
2022-08-06T08:28:11.000Z,99365.59
2022-08-06T08:30:40.644Z,99371.53
2022-08-06T08:33:11.491Z,99374.16
2022-08-06T08:35:50.556Z,99368.75
2022-08-06T08:38:29.415Z,99370.41
2022-08-06T08:40:56.873Z,99373.06
2022-08-06T08:43:40.792Z,99369.44
2022-08-06T08:46:12.190Z,99365.00
2022-08-06T08:48:39.415Z,99369.31
2022-08-06T08:51:06.542Z,99370.13
2022-08-06T08:53:46.314Z,99364.69
2022-08-06T08:57:08.194Z,99361.94
2022-08-06T08:59:17.860Z,99368.84
2022-08-06T09:01:52.519Z,99355.66
2022-08-06T09:04:20.974Z,99359.94
2022-08-06T09:06:52.122Z,99371.31
2022-08-06T09:09:19.256Z,99359.81
2022-08-06T09:12:03.979Z,99362.47
2022-08-06T09:14:35.461Z,99357.03
2022-08-06T09:17:02.916Z,99362.16
2022-08-06T09:19:37.750Z,99355.22
2022-08-06T09:22:06.718Z,99355.91
2022-08-06T09:24:36.557Z,99357.72
2022-08-06T09:27:48.236Z,99356.72
2022-08-06T09:30:00.734Z,99358.38
2022-08-06T09:32:39.041Z,99351.28
2022-08-06T09:35:44.910Z,99350.47
2022-08-06T09:38:11.047Z,99353.94
2022-08-06T09:40:38.158Z,99358.38
2022-08-06T09:43:10.400Z,99348.53
2022-08-06T09:45:42.260Z,99347.69
2022-08-06T09:48:17.541Z,99348.53
2022-08-06T09:50:51.031Z,99350.16
2022-08-06T09:53:21.089Z,99347.53
2022-08-06T09:55:49.715Z,99348.34
2022-08-06T09:58:16.763Z,99357.09
2022-08-06T10:00:46.421Z,99344.72
2022-08-06T10:04:03.595Z,99347.38
2022-08-06T10:06:05.090Z,99346.41
2022-08-06T10:08:32.157Z,99349.06
2022-08-06T10:11:07.368Z,99346.41
2022-08-06T10:13:43.842Z,99339.31
2022-08-06T10:16:11.736Z,99344.59
2022-08-06T10:18:54.674Z,99348.06
2022-08-06T10:21:26.819Z,99346.25
2022-08-06T10:23:54.569Z,99351.53
2022-08-06T10:26:21.651Z,99345.25
2022-08-06T10:28:49.745Z,99342.63
2022-08-06T10:31:21.541Z,99342.50
2022-08-06T10:33:56.452Z,99346.94
2022-08-06T10:36:23.983Z,99339.84
2022-08-06T10:38:53.894Z,99339.84
2022-08-06T10:41:59.842Z,99335.41
2022-08-06T10:44:07.984Z,99336.09
2022-08-06T10:46:35.035Z,99326.50
2022-08-06T10:50:25.963Z,99331.66
2022-08-06T10:51:57.123Z,99336.75
2022-08-06T10:54:25.987Z,99332.47
2022-08-06T10:56:54.954Z,99328.84
2022-08-06T10:59:25.544Z,99319.28
2022-08-06T11:02:07.927Z,99317.31
2022-08-06T11:04:34.995Z,99327.84
2022-08-06T11:07:02.043Z,99326.03
2022-08-06T11:10:01.577Z,99329.53
2022-08-06T11:12:17.369Z,99320.78
2022-08-06T11:14:44.440Z,99315.50
2022-08-06T11:17:12.976Z,99317.16
2022-08-06T11:19:46.321Z,99320.63
2022-08-06T11:22:23.394Z,99311.91
2022-08-06T11:24:59.026Z,99310.75
2022-08-06T11:27:26.735Z,99318.66
2022-08-06T11:30:04.902Z,99302.84
2022-08-06T11:32:32.273Z,99302.84
2022-08-06T11:34:59.479Z,99301.88
2022-08-06T11:38:02.924Z,99307.16
2022-08-06T11:40:19.832Z,99310.47
2022-08-06T11:42:50.322Z,99307.84
2022-08-06T11:46:20.938Z,99301.56
2022-08-06T11:48:06.309Z,99312.13
2022-08-06T11:50:33.422Z,99300.63
2022-08-06T11:53:02.778Z,99304.91
2022-08-06T11:55:30.678Z,99303.09
2022-08-06T11:58:06.584Z,99300.31
2022-08-06T12:00:34.096Z,99296.00
2022-08-06T12:03:03.644Z,99294.88
2022-08-06T12:05:30.687Z,99290.41
2022-08-06T12:07:57.719Z,99297.34
2022-08-06T12:10:29.196Z,99292.06
2022-08-06T12:12:57.129Z,99291.13
2022-08-06T12:15:59.370Z,99295.41
2022-08-06T12:18:20.466Z,99292.59
2022-08-06T12:20:56.984Z,99277.59
2022-08-06T12:23:54.620Z,99279.41
2022-08-06T12:26:14.175Z,99279.25
2022-08-06T12:28:42.084Z,99276.47
2022-08-06T12:31:36.364Z,99277.44
2022-08-06T12:33:58.600Z,99277.28
2022-08-06T12:36:32.644Z,99264.09
2022-08-06T12:39:02.688Z,99264.91
2022-08-06T12:41:45.455Z,99262.13
2022-08-06T12:44:14.786Z,99260.31
2022-08-06T12:46:43.417Z,99261.00
2022-08-06T12:49:10.711Z,99258.50
2022-08-06T12:51:37.911Z,99253.09
2022-08-06T12:54:05.023Z,99252.09
2022-08-06T12:56:33.257Z,99246.81
2022-08-06T12:59:05.372Z,99247.47
2022-08-06T13:02:09.273Z,99248.31
2022-08-06T13:04:19.769Z,99247.34
2022-08-06T13:06:48.763Z,99251.63
2022-08-06T13:09:16.070Z,99239.25
2022-08-06T13:11:43.127Z,99252.31
2022-08-06T13:14:19.314Z,99250.50
2022-08-06T13:16:54.937Z,99244.75
2022-08-06T13:19:28.336Z,99235.75
2022-08-06T13:22:00.415Z,99230.66
2022-08-06T13:24:30.839Z,99221.28
2022-08-06T13:26:59.849Z,99222.78
2022-08-06T13:30:30.758Z,99221.47
2022-08-06T13:32:27.887Z,99226.31
2022-08-06T13:35:00.891Z,99219.88
2022-08-06T13:37:45.164Z,99219.53
2022-08-06T13:40:15.092Z,99219.22
2022-08-06T13:42:42.165Z,99220.75
2022-08-06T13:45:56.945Z,99221.25
2022-08-06T13:47:58.647Z,99222.75
2022-08-06T13:50:28.608Z,99212.00
2022-08-06T13:53:00.836Z,99222.25
2022-08-06T13:56:02.628Z,99214.16
2022-08-06T13:58:17.269Z,99212.22
2022-08-06T14:00:47.641Z,99211.03
2022-08-06T14:03:16.057Z,99205.63
2022-08-06T14:05:48.862Z,99209.75
2022-08-06T14:08:19.403Z,99200.66
2022-08-06T14:11:02.131Z,99201.16
2022-08-06T14:13:30.211Z,99203.66
2022-08-06T14:15:57.398Z,99206.13
2022-08-06T14:18:28.375Z,99198.88
2022-08-06T14:20:55.699Z,99203.16
2022-08-06T14:23:23.264Z,99194.25
2022-08-06T14:25:59.991Z,99190.59
2022-08-06T14:28:30.931Z,99183.19
2022-08-06T14:31:00.434Z,99194.44
2022-08-06T14:33:36.928Z,99189.66
2022-08-06T14:36:05.982Z,99195.56
2022-08-06T14:38:34.962Z,99192.78
2022-08-06T14:41:51.186Z,99191.63
2022-08-06T14:44:26.594Z,99192.28
2022-08-06T14:46:53.611Z,99186.00
2022-08-06T14:49:20.726Z,99192.81
2022-08-06T14:52:20.980Z,99190.00
2022-08-06T14:54:34.797Z,99191.50
2022-08-06T14:57:14.781Z,99189.34
2022-08-06T14:59:48.708Z,99191.00
2022-08-06T15:02:20.124Z,99178.59
2022-08-06T15:04:52.320Z,99175.81
2022-08-06T15:07:25.580Z,99174.00
2022-08-06T15:10:03.731Z,99177.28
2022-08-06T15:12:42.498Z,99177.78
2022-08-06T15:15:18.377Z,99176.81
2022-08-06T15:18:11.326Z,99180.91
2022-08-06T15:20:38.167Z,99172.84
2022-08-06T15:23:05.808Z,99163.72
2022-08-06T15:26:01.541Z,99172.50
2022-08-06T15:28:20.598Z,99167.03
2022-08-06T15:30:47.922Z,99167.72
2022-08-06T15:33:15.059Z,99160.44
2022-08-06T15:35:58.285Z,99162.91
2022-08-06T15:38:27.154Z,99167.03
2022-08-06T15:40:54.268Z,99173.81
2022-08-06T15:43:23.705Z,99172.00
2022-08-06T15:45:55.393Z,99168.34
2022-08-06T15:48:29.175Z,99168.19
2022-08-06T15:51:27.061Z,99162.72
2022-08-06T15:53:43.656Z,99164.56
2022-08-06T15:56:33.962Z,99166.06
2022-08-06T15:59:11.435Z,99164.03
2022-08-06T16:01:51.873Z,99162.22
2022-08-06T16:04:27.027Z,99161.41
2022-08-06T16:06:56.642Z,99165.53
2022-08-06T16:09:27.732Z,99159.25
2022-08-06T16:11:55.715Z,99154.63
2022-08-06T16:14:33.853Z,99150.16
2022-08-06T16:17:09.825Z,99163.38
2022-08-06T16:19:49.404Z,99162.19
2022-08-06T16:22:18.481Z,99154.44
2022-08-06T16:24:46.659Z,99155.13
2022-08-06T16:27:17.033Z,99159.41
2022-08-06T16:29:44.331Z,99159.56
2022-08-06T16:32:17.446Z,99158.72
2022-08-06T16:34:47.076Z,99163.69
2022-08-06T16:40:05.182Z,99162.69
2022-08-06T16:42:34.050Z,99163.53
2022-08-06T16:45:02.917Z,99160.03
2022-08-06T16:48:21.254Z,99157.41
2022-08-06T16:50:26.338Z,99157.59
2022-08-06T16:55:42.298Z,99154.75
2022-08-06T16:58:16.628Z,99157.75
2022-08-06T17:00:59.673Z,99159.56
2022-08-06T17:03:46.002Z,99154.25
2022-08-06T17:09:00.502Z,99157.78
2022-08-06T17:11:45.330Z,99148.69
2022-08-06T17:14:17.156Z,99158.78
2022-08-06T17:16:47.394Z,99161.75
2022-08-06T17:19:16.262Z,99166.56
2022-08-06T17:21:52.959Z,99162.41
2022-08-06T17:24:32.963Z,99160.94
2022-08-06T17:27:04.667Z,99159.44
2022-08-06T17:29:45.403Z,99159.63
2022-08-06T17:32:22.744Z,99164.41
2022-08-06T17:35:00.122Z,99168.03
2022-08-06T17:37:44.318Z,99164.06
2022-08-06T17:40:19.853Z,99166.06
2022-08-06T17:42:28.511Z,99158.41
2022-08-06T17:42:58.330Z,99158.47
2022-08-06T17:45:27.759Z,99160.41
2022-08-06T17:47:56.594Z,99166.84
2022-08-06T17:50:42.382Z,99156.59
2022-08-06T17:53:20.143Z,99161.91
2022-08-06T17:56:00.368Z,99157.94
2022-08-06T17:58:37.400Z,99154.59
2022-08-06T18:01:16.731Z,99153.13
2022-08-06T18:03:49.666Z,99153.28
2022-08-06T18:06:18.494Z,99159.72
2022-08-06T18:08:50.956Z,99168.63
2022-08-06T18:11:20.399Z,99164.53
2022-08-06T18:13:53.387Z,99162.03
2022-08-06T18:16:25.356Z,99166.50
2022-08-06T18:18:57.013Z,99161.38
2022-08-06T18:21:25.654Z,99168.63
2022-08-06T18:23:56.994Z,99167.81
2022-08-06T18:26:30.917Z,99171.44
2022-08-06T18:29:00.229Z,99165.50
2022-08-06T18:31:59.092Z,99170.94
2022-08-06T18:34:18.799Z,99170.28
2022-08-06T18:36:46.194Z,99180.00
2022-08-06T18:39:15.239Z,99177.53
2022-08-06T18:41:56.601Z,99180.34
2022-08-06T18:44:27.268Z,99184.78
2022-08-06T18:46:55.974Z,99182.31
2022-08-06T18:49:39.002Z,99184.28
2022-08-06T18:52:24.523Z,99187.09
2022-08-06T18:54:56.729Z,99185.59
2022-08-06T18:58:01.200Z,99194.53
2022-08-06T19:00:18.442Z,99197.31
2022-08-06T19:02:47.174Z,99194.84
2022-08-06T19:05:16.467Z,99198.47
2022-08-06T19:07:48.796Z,99203.91
2022-08-06T19:10:18.154Z,99196.97
2022-08-06T19:12:45.876Z,99206.72
2022-08-06T19:15:19.692Z,99209.50
2022-08-06T19:18:13.421Z,99211.47
2022-08-06T19:20:38.894Z,99208.97
2022-08-06T19:23:06.936Z,99212.63
2022-08-06T19:25:52.091Z,99217.06
2022-08-06T19:28:36.471Z,99213.78
2022-08-06T19:31:11.400Z,99222.66
2022-08-06T19:33:38.643Z,99214.88
2022-08-06T19:36:26.521Z,99222.94
2022-08-06T19:38:54.298Z,99216.03
2022-08-06T19:41:57.168Z,99212.56
2022-08-06T19:44:24.669Z,99217.19
2022-08-06T19:46:57.379Z,99216.34
2022-08-06T19:49:24.501Z,99212.22
2022-08-06T19:52:02.402Z,99222.78
2022-08-06T19:54:36.141Z,99220.28
2022-08-06T19:57:08.370Z,99223.91
2022-08-06T20:00:52.184Z,99223.22
2022-08-06T20:02:26.285Z,99220.59
2022-08-06T20:04:55.668Z,99227.03
2022-08-06T20:07:25.135Z,99231.50
2022-08-06T20:09:59.441Z,99225.53
2022-08-06T20:12:29.905Z,99233.44
2022-08-06T20:14:59.579Z,99233.63
2022-08-06T20:17:29.955Z,99232.78
2022-08-06T20:20:13.880Z,99234.75
2022-08-06T20:22:42.762Z,99232.09
2022-08-06T20:25:18.406Z,99235.75
2022-08-06T20:29:10.242Z,99235.06
2022-08-06T20:30:33.847Z,99234.41
2022-08-06T20:33:02.120Z,99238.84
2022-08-06T20:35:32.643Z,99245.09
2022-08-06T20:38:07.011Z,99243.44
2022-08-06T20:41:26.516Z,99240.81
2022-08-06T20:44:04.788Z,99236.66
2022-08-06T20:46:11.515Z,99225.28
2022-08-06T20:48:40.303Z,99234.19
2022-08-06T20:51:09.143Z,99243.09
2022-08-06T20:53:37.426Z,99243.25
2022-08-06T20:56:04.660Z,99243.41
2022-08-06T20:58:32.583Z,99239.94
2022-08-06T21:01:00.590Z,99244.41
2022-08-06T21:05:15.410Z,99241.06
2022-08-06T21:06:26.411Z,99249.00
2022-08-06T21:08:57.989Z,99248.16
2022-08-06T21:11:27.302Z,99241.25
2022-08-06T21:14:04.987Z,99241.38
2022-08-06T21:16:35.513Z,99239.72
2022-08-06T21:19:02.659Z,99235.44
2022-08-06T21:21:31.666Z,99239.91
2022-08-06T21:23:59.269Z,99242.53
2022-08-06T21:26:34.853Z,99242.69
2022-08-06T21:29:41.596Z,99241.84
2022-08-06T21:31:50.102Z,99242.03
2022-08-06T21:34:19.666Z,99244.78
2022-08-06T21:36:47.329Z,99243.97
2022-08-06T21:39:17.054Z,99243.16
2022-08-06T21:41:55.395Z,99245.94
2022-08-06T21:44:24.462Z,99247.75
2022-08-06T21:46:57.930Z,99246.09
2022-08-06T21:50:00.261Z,99245.28
2022-08-06T21:52:16.250Z,99241.81
2022-08-06T21:54:55.776Z,99248.06
2022-08-06T21:57:24.948Z,99255.31
2022-08-06T21:59:53.211Z,99256.13
2022-08-06T22:02:21.853Z,99254.47
2022-08-06T22:04:59.276Z,99250.31
2022-08-06T22:07:33.945Z,99258.25
2022-08-06T22:10:15.041Z,99257.41
2022-08-06T22:13:15.552Z,99258.41
2022-08-06T22:15:34.077Z,99264.63
2022-08-06T22:18:17.069Z,99265.63
2022-08-06T22:20:45.926Z,99266.63
2022-08-06T22:23:15.925Z,99263.16
2022-08-06T22:25:44.867Z,99255.34
2022-08-06T22:28:23.633Z,99264.13
2022-08-06T22:30:59.181Z,99254.69
2022-08-06T22:33:26.275Z,99266.06
2022-08-06T22:35:58.304Z,99266.06
2022-08-06T22:38:38.650Z,99269.84
2022-08-06T22:41:05.683Z,99269.84
2022-08-06T22:43:56.743Z,99261.09
2022-08-06T22:46:24.665Z,99262.25
2022-08-06T22:48:52.302Z,99263.22
2022-08-06T22:51:28.511Z,99268.47
2022-08-06T22:54:25.465Z,99268.66
2022-08-06T22:57:05.012Z,99265.19
2022-08-06T23:00:11.243Z,99269.63
2022-08-06T23:02:20.133Z,99266.31
2022-08-06T23:04:49.115Z,99264.50
2022-08-06T23:07:25.729Z,99261.19
2022-08-06T23:09:53.197Z,99262.03
2022-08-06T23:12:25.340Z,99261.19
2022-08-06T23:14:58.930Z,99261.34
2022-08-06T23:17:26.160Z,99261.34
2022-08-06T23:20:07.429Z,99267.59
2022-08-06T23:22:38.914Z,99263.31
2022-08-06T23:26:00.427Z,99265.94
2022-08-06T23:27:55.084Z,99259.84
2022-08-06T23:30:26.222Z,99259.16
2022-08-06T23:32:53.411Z,99253.06
2022-08-06T23:35:35.172Z,99250.56
2022-08-06T23:38:32.045Z,99261.09
2022-08-06T23:40:51.694Z,99254.19
2022-08-06T23:43:19.397Z,99256.00
2022-08-06T23:45:47.192Z,99255.16
2022-08-06T23:48:15.162Z,99256.16
2022-08-06T23:50:52.629Z,99257.81
2022-08-06T23:54:07.802Z,99257.13
2022-08-06T23:56:07.685Z,99255.47
2022-08-06T23:58:36.785Z,99253.81
